Quiset — P95944 — position and weather

sailwx.info

Track history (hours):
 
Tides and Currents Weather Stations Pressure Air Temp Water Temp Dewpoint Dewpoint Depression Visibility Wind Speed Wind Dir Waves Ship Positions

Quiset

Last reported at 2018-Jun-23 08:58 UTC. Time now 2018-Jun-23 10:11 UTC.
Position N 38°41' W 028°12'.

MMSI: 244020394.

Date/timePositionNaut miles runAvg speedWind from/ knotsBaromVisibWave heightAir tempDewpointWater temp
2018-Jun-23 08:58N 38°41' W 028°12'0 0.0
2018-Jun-23 08:30N 38°41' W 028°12'0 0.0
2018-Jun-23 07:07N 38°41' W 028°12'0 0.0
2018-Jun-23 06:55N 38°41' W 028°12'0 0.0
2018-Jun-23 06:13N 38°41' W 028°12'0 0.0
2018-Jun-23 05:55N 38°41' W 028°12'0 0.0
2018-Jun-23 05:25N 38°41' W 028°12'0 0.0
2018-Jun-23 05:01N 38°41' W 028°12'0 0.0
2018-Jun-23 04:30N 38°41' W 028°12'0 0.0
2018-Jun-23 03:37N 38°41' W 028°12'0 0.0
2018-Jun-23 03:24N 38°41' W 028°12'0 0.0
2018-Jun-23 02:58N 38°41' W 028°12'0 0.0
2018-Jun-23 02:25N 38°41' W 028°12'0 0.0
2018-Jun-23 01:43N 38°41' W 028°12'0 0.0
2018-Jun-22 17:49N 38°41' W 028°12'0 0.0
2018-Jun-22 16:43N 38°41' W 028°12'0 0.0
2018-Jun-22 16:13N 38°41' W 028°12'0 0.0
2018-Jun-22 16:00N 38°41' W 028°12'0 0.0
2018-Jun-22 15:19N 38°41' W 028°12'0 0.0
2018-Jun-22 12:49N 38°41' W 028°12'0 0.1
2018-Jun-22 12:11N 38°41' W 028°12'0 0.1
2018-Jun-22 12:00N 38°41' W 028°12'0 0.0
2018-Jun-22 11:27N 38°41' W 028°12'0 0.0
2018-Jun-22 11:00N 38°41' W 028°12'0 0.0
2018-Jun-22 10:24N 38°41' W 028°12'0 0.0
2018-Jun-22 10:00N 38°41' W 028°12'0 0.0
2018-Jun-22 09:27N 38°41' W 028°12'0 0.0
2018-Jun-22 09:00N 38°41' W 028°12'0 0.0
2018-Jun-22 08:27N 38°41' W 028°12'0 0.0
2018-Jun-22 08:00N 38°41' W 028°12'0 0.0
2018-Jun-22 07:30N 38°41' W 028°12'0 0.0
2018-Jun-22 07:00N 38°41' W 028°12'0 0.0
2018-Jun-22 06:30N 38°41' W 028°12'0 0.0
2018-Jun-22 05:54N 38°41' W 028°12'0 0.0
2018-Jun-22 05:24N 38°41' W 028°12'0 0.0
2018-Jun-22 04:39N 38°41' W 028°12'0 0.0
2018-Jun-22 04:24N 38°41' W 028°12'0 0.0
2018-Jun-22 04:00N 38°41' W 028°12'0 0.0
2018-Jun-22 03:24N 38°41' W 028°12'0 0.0
2018-Jun-22 02:12N 38°41' W 028°12'0 0.0
2018-Jun-22 01:39N 38°41' W 028°12'0 0.0
2018-Jun-22 01:15N 38°41' W 028°12'0 0.0
2018-Jun-22 00:57N 38°41' W 028°12'0 0.0
2018-Jun-22 00:30N 38°41' W 028°12'0 0.0
2018-Jun-22 00:00N 38°41' W 028°12'0 0.0
2018-Jun-21 23:30N 38°41' W 028°12'0 0.0
2018-Jun-21 22:12N 38°41' W 028°12'0 0.0
2018-Jun-21 22:00N 38°41' W 028°12'0 0.0
2018-Jun-21 21:24N 38°41' W 028°12'0 0.0
2018-Jun-21 21:00N 38°41' W 028°12'0 0.0
2018-Jun-21 20:30N 38°41' W 028°12'0 0.3
2018-Jun-21 20:00N 38°41' W 028°12'2 4.3
2018-Jun-21 19:30N 38°40' W 028°15'2 5.0
2018-Jun-21 19:00N 38°39' W 028°18'3 5.7
2018-Jun-21 18:30N 38°38' W 028°21'3 5.7
2018-Jun-21 18:00N 38°38' W 028°25'3 5.5
2018-Jun-21 17:30N 38°37' W 028°28'2 3.5
2018-Jun-21 17:00N 38°36' W 028°30'2 3.5
2018-Jun-21 16:30N 38°35' W 028°32'2 3.6
2018-Jun-21 16:00N 38°35' W 028°34'1 2.6
2018-Jun-21 15:31N 38°33' W 028°35'2 3.9
2018-Jun-21 15:00N 38°32' W 028°33'2 4.5
2018-Jun-21 14:30N 38°32' W 028°36'1 2.2
2018-Jun-21 14:00N 38°32' W 028°37'0 0.0
2018-Jun-21 13:29N 38°32' W 028°37'0 0.0
2018-Jun-21 12:59N 38°32' W 028°37'0 0.0
2018-Jun-21 12:28N 38°32' W 028°37'0 0.0
2018-Jun-21 11:59N 38°32' W 028°37'0 0.0
2018-Jun-21 11:26N 38°32' W 028°37'0 0.0
2018-Jun-21 10:58N 38°32' W 028°37'0 0.0
2018-Jun-21 10:29N 38°32' W 028°37'0 0.0
2018-Jun-21 09:59N 38°32' W 028°37'0 0.0
2018-Jun-21 09:28N 38°32' W 028°37'0 0.0
2018-Jun-21 08:59N 38°32' W 028°37'0 0.0
2018-Jun-21 08:29N 38°32' W 028°37'0 0.0
2018-Jun-21 07:58N 38°32' W 028°37'0 0.0
2018-Jun-21 07:29N 38°32' W 028°37'0 0.0
2018-Jun-21 06:59N 38°32' W 028°37'0 0.0
2018-Jun-21 06:28N 38°32' W 028°37'0 0.0
2018-Jun-21 05:58N 38°32' W 028°37'0 0.0
2018-Jun-21 05:29N 38°32' W 028°37'0 0.0
2018-Jun-21 04:58N 38°32' W 028°37'0 0.0
2018-Jun-21 04:28N 38°32' W 028°37'0 0.0
2018-Jun-21 03:58N 38°32' W 028°37'0 0.0
2018-Jun-21 03:28N 38°32' W 028°37'0 0.0
2018-Jun-21 02:58N 38°32' W 028°37'0 0.0
2018-Jun-21 02:28N 38°32' W 028°37'0 0.0
2018-Jun-21 01:58N 38°32' W 028°37'0 0.0
2018-Jun-21 01:28N 38°32' W 028°37'0 0.0
2018-Jun-21 00:58N 38°32' W 028°37'0 0.0
2018-Jun-21 00:22N 38°32' W 028°37'0 0.0
2018-Jun-20 23:58N 38°32' W 028°37'0 0.0
2018-Jun-20 23:25N 38°32' W 028°37'0 0.0
2018-Jun-20 22:58N 38°32' W 028°37'0 0.0
2018-Jun-20 22:28N 38°32' W 028°37'0 0.0
2018-Jun-20 21:58N 38°32' W 028°37'0 0.0
2018-Jun-20 21:28N 38°32' W 028°37'0 0.0
2018-Jun-20 20:58N 38°32' W 028°37'0 0.0
2018-Jun-20 20:28N 38°32' W 028°37'0 0.0
2018-Jun-20 19:58N 38°32' W 028°37'0 0.0
2018-Jun-20 19:28N 38°32' W 028°37'0 0.0
2018-Jun-20 18:58N 38°32' W 028°37'0 0.0
2018-Jun-20 18:28N 38°32' W 028°37'0 0.0
2018-Jun-20 17:58N 38°32' W 028°37'0 0.0
2018-Jun-20 17:28N 38°32' W 028°37'0 0.0
2018-Jun-20 16:58N 38°32' W 028°37'0 0.0
2018-Jun-20 16:28N 38°32' W 028°37'0 0.0
2018-Jun-20 15:58N 38°32' W 028°37'0 0.0
2018-Jun-20 15:28N 38°32' W 028°37'0 0.0
2018-Jun-20 14:58N 38°32' W 028°37'0 0.0
2018-Jun-20 14:28N 38°32' W 028°37'0 0.0
2018-Jun-20 13:58N 38°32' W 028°37'0 0.0
2018-Jun-20 13:28N 38°32' W 028°37'0 0.0
2018-Jun-20 12:58N 38°32' W 028°37'0 0.0
2018-Jun-20 12:28N 38°32' W 028°37'0 0.0
2018-Jun-20 11:58N 38°32' W 028°37'0 0.0
2018-Jun-20 11:28N 38°32' W 028°37'0 0.0
2018-Jun-20 10:58N 38°32' W 028°37'0 0.0
2018-Jun-20 10:28N 38°32' W 028°37'0 0.0
2018-Jun-20 09:58N 38°32' W 028°37'0 0.0
2018-Jun-20 09:28N 38°32' W 028°37'0 0.0
2018-Jun-20 08:58N 38°32' W 028°37'0 0.0
2018-Jun-20 08:28N 38°32' W 028°37'0 0.0
2018-Jun-20 07:58N 38°32' W 028°37'0 0.0
2018-Jun-20 07:28N 38°32' W 028°37'0 0.0
2018-Jun-20 06:58N 38°32' W 028°37'0 0.0
2018-Jun-20 06:28N 38°32' W 028°37'0 0.0
2018-Jun-20 05:55N 38°32' W 028°37'0 0.0
2018-Jun-20 05:28N 38°32' W 028°37'0 0.0
2018-Jun-20 04:58N 38°32' W 028°37'0 0.0
2018-Jun-20 04:28N 38°32' W 028°37'0 0.0
2018-Jun-20 03:58N 38°32' W 028°37'0 0.0
2018-Jun-20 03:28N 38°32' W 028°37'0 0.0
2018-Jun-20 02:58N 38°32' W 028°37'0 0.0
2018-Jun-20 02:28N 38°32' W 028°37'0 0.0
2018-Jun-20 01:58N 38°32' W 028°37'0 0.0
2018-Jun-20 01:28N 38°32' W 028°37'0 0.0
2018-Jun-20 00:58N 38°32' W 028°37'0 0.0
2018-Jun-20 00:28N 38°32' W 028°37'0 0.0
2018-Jun-19 23:58N 38°32' W 028°37'0 0.0
2018-Jun-19 23:28N 38°32' W 028°37'0 0.0
2018-Jun-19 22:58N 38°32' W 028°37'0 0.0
2018-Jun-19 22:28N 38°32' W 028°37'0 0.0
2018-Jun-19 21:58N 38°32' W 028°37'0 0.0
2018-Jun-19 21:28N 38°32' W 028°37'0 0.0
2018-Jun-19 20:58N 38°32' W 028°37'0 0.0
2018-Jun-19 20:28N 38°32' W 028°37'0 0.0
2018-Jun-19 19:58N 38°32' W 028°37'0 0.0
2018-Jun-19 19:28N 38°32' W 028°37'0 0.0
2018-Jun-19 18:55N 38°32' W 028°37'0 0.0
2018-Jun-19 18:28N 38°32' W 028°37'0 0.0
2018-Jun-19 17:58N 38°32' W 028°37'0 0.0
2018-Jun-19 17:28N 38°32' W 028°37'0 0.0
2018-Jun-19 16:58N 38°32' W 028°37'0 0.0
2018-Jun-19 16:28N 38°32' W 028°37'0 0.0
2018-Jun-19 15:55N 38°32' W 028°37'0 0.0
2018-Jun-19 15:28N 38°32' W 028°37'0 0.0
2018-Jun-19 14:58N 38°32' W 028°37'0 0.0
2018-Jun-19 14:28N 38°32' W 028°37'0 0.0
2018-Jun-19 13:58N 38°32' W 028°37'0 0.0
2018-Jun-19 13:28N 38°32' W 028°38'0 0.0
2018-Jun-19 12:58N 38°32' W 028°37'0 0.0
2018-Jun-19 12:28N 38°32' W 028°37'0 0.0
2018-Jun-19 11:58N 38°32' W 028°38'0 0.0
2018-Jun-19 11:28N 38°32' W 028°37'0 0.0
2018-Jun-19 10:58N 38°32' W 028°37'0 0.0
2018-Jun-19 10:28N 38°32' W 028°37'0 0.0
2018-Jun-19 09:58N 38°32' W 028°37'0 0.0
2018-Jun-19 09:28N 38°32' W 028°37'0 0.0
2018-Jun-19 08:58N 38°32' W 028°38'0 0.0
2018-Jun-19 08:28N 38°32' W 028°37'0 0.0
2018-Jun-19 07:58N 38°32' W 028°38'0 0.0
2018-Jun-19 07:28N 38°32' W 028°38'0 0.0
2018-Jun-19 06:58N 38°32' W 028°38'0 0.0
2018-Jun-19 06:28N 38°32' W 028°38'0 0.0
2018-Jun-19 05:58N 38°32' W 028°37'0 0.0
2018-Jun-19 05:25N 38°32' W 028°37'0 0.0
2018-Jun-19 04:58N 38°32' W 028°37'0 0.0
2018-Jun-19 04:25N 38°32' W 028°37'0 0.0
2018-Jun-19 03:58N 38°32' W 028°37'0 0.0
2018-Jun-19 03:28N 38°32' W 028°37'0 0.0
2018-Jun-19 02:58N 38°32' W 028°37'0 0.0
2018-Jun-19 02:28N 38°32' W 028°37'0 0.0
2018-Jun-19 01:58N 38°32' W 028°37'0 0.0
2018-Jun-19 01:28N 38°32' W 028°37'0 0.0
2018-Jun-19 00:55N 38°32' W 028°37'0 0.0
2018-Jun-19 00:28N 38°32' W 028°37'0 0.0
2018-Jun-18 23:58N 38°32' W 028°37'0 0.0
2018-Jun-18 23:28N 38°32' W 028°37'0 0.0
2018-Jun-18 22:58N 38°32' W 028°37'0 0.0
2018-Jun-18 22:28N 38°32' W 028°37'0 0.0
2018-Jun-18 21:58N 38°32' W 028°37'0 0.0
2018-Jun-18 21:28N 38°32' W 028°37'0 0.0
2018-Jun-18 20:58N 38°32' W 028°37'0 0.0
2018-Jun-18 20:28N 38°32' W 028°37'0 0.0
2018-Jun-18 19:58N 38°32' W 028°37'0 0.0
2018-Jun-18 19:25N 38°32' W 028°37'0 0.0
2018-Jun-18 18:58N 38°32' W 028°37'0 0.0
2018-Jun-18 18:28N 38°32' W 028°37'0 0.0
2018-Jun-18 17:58N 38°32' W 028°37'0 0.0
2018-Jun-18 17:25N 38°32' W 028°37'0 0.0
2018-Jun-18 16:58N 38°32' W 028°37'0 0.0
2018-Jun-18 16:28N 38°32' W 028°37'0 0.0
2018-Jun-18 15:58N 38°32' W 028°37'0 0.0
2018-Jun-18 15:28N 38°32' W 028°37'0 0.0
2018-Jun-18 14:58N 38°32' W 028°37'0 0.0
2018-Jun-18 14:28N 38°32' W 028°37'0 0.0
2018-Jun-18 13:58N 38°32' W 028°37'0 0.0
2018-Jun-18 13:28N 38°32' W 028°37'0 0.0
2018-Jun-18 12:58N 38°32' W 028°37'0 0.0
2018-Jun-18 12:25N 38°32' W 028°37'0 0.0
2018-Jun-18 11:58N 38°32' W 028°37'0 0.0
2018-Jun-18 11:28N 38°32' W 028°37'0 0.0
2018-Jun-18 10:58N 38°32' W 028°37'0 0.0
2018-Jun-18 10:28N 38°32' W 028°37'0 0.0
2018-Jun-18 09:46N 38°32' W 028°37'0 0.0
2018-Jun-18 09:25N 38°32' W 028°37'0 0.0
2018-Jun-18 08:58N 38°32' W 028°37'0 0.0
2018-Jun-18 08:28N 38°32' W 028°37'0 0.0
2018-Jun-18 07:58N 38°32' W 028°37'0 0.0
2018-Jun-18 07:28N 38°32' W 028°37'0 0.0
2018-Jun-18 06:58N 38°32' W 028°37'0 0.0
2018-Jun-18 06:28N 38°32' W 028°37'0 0.0
2018-Jun-18 05:58N 38°32' W 028°37'0 0.0
2018-Jun-18 05:28N 38°32' W 028°37'0 0.0
2018-Jun-18 04:58N 38°32' W 028°37'0 0.0
2018-Jun-18 04:28N 38°32' W 028°37'0 0.0
2018-Jun-18 03:58N 38°32' W 028°37'0 0.0
2018-Jun-18 03:28N 38°32' W 028°37'0 0.0
2018-Jun-18 02:58N 38°32' W 028°37'0 0.0
2018-Jun-18 02:28N 38°32' W 028°37'0 0.0
2018-Jun-18 01:58N 38°32' W 028°37'0 0.0
2018-Jun-18 01:28N 38°32' W 028°37'0 0.0
2018-Jun-18 00:58N 38°32' W 028°37'0 0.0
2018-Jun-18 00:25N 38°32' W 028°37'0 0.0
2018-Jun-17 23:58N 38°32' W 028°37'0 0.0
2018-Jun-17 23:28N 38°32' W 028°37'0 0.0
2018-Jun-17 22:58N 38°32' W 028°37'0 0.0
2018-Jun-17 22:28N 38°32' W 028°37'0 0.0
2018-Jun-17 21:52N 38°32' W 028°37'0 0.0
2018-Jun-17 21:28N 38°32' W 028°37'0 0.0
2018-Jun-17 20:58N 38°32' W 028°37'0 0.0
2018-Jun-17 20:25N 38°32' W 028°37'0 0.0
2018-Jun-17 19:58N 38°32' W 028°37'0 0.0
2018-Jun-17 19:28N 38°32' W 028°37'0 0.0
2018-Jun-17 18:58N 38°32' W 028°37'0 0.0
2018-Jun-17 18:28N 38°32' W 028°37'0 0.0
2018-Jun-17 17:58N 38°32' W 028°37'0 0.0
2018-Jun-17 17:28N 38°32' W 028°37'0 0.0
2018-Jun-17 16:58N 38°32' W 028°37'0 0.0
2018-Jun-17 16:28N 38°32' W 028°37'0 0.0
2018-Jun-17 15:58N 38°32' W 028°37'0 0.0
2018-Jun-17 15:28N 38°32' W 028°37'0 0.0
2018-Jun-17 14:58N 38°32' W 028°37'0 0.0
2018-Jun-17 14:28N 38°32' W 028°37'0 0.0
2018-Jun-17 13:58N 38°32' W 028°37'0 0.0
2018-Jun-17 13:28N 38°32' W 028°37'0 0.0
2018-Jun-17 12:58N 38°32' W 028°37'0 0.0
2018-Jun-17 12:28N 38°32' W 028°37'0 0.0
2018-Jun-17 11:58N 38°32' W 028°37'0 0.0
2018-Jun-17 11:28N 38°32' W 028°37'0 0.0
2018-Jun-17 10:58N 38°32' W 028°37'0 0.0
2018-Jun-17 10:28N 38°32' W 028°37'0 0.0
2018-Jun-17 09:58N 38°32' W 028°37'0 0.0
2018-Jun-17 09:28N 38°32' W 028°37'0 0.0
2018-Jun-17 08:58N 38°32' W 028°37'0 0.0
2018-Jun-17 08:28N 38°32' W 028°37'0 0.0
2018-Jun-17 07:58N 38°32' W 028°37'0 0.0
2018-Jun-17 07:28N 38°32' W 028°37'0 0.0
2018-Jun-17 06:58N 38°32' W 028°37'0 0.0
2018-Jun-17 06:28N 38°32' W 028°37'0 0.0
2018-Jun-17 05:58N 38°32' W 028°37'0 0.0
2018-Jun-17 05:28N 38°32' W 028°37'0 0.0
2018-Jun-17 04:58N 38°32' W 028°37'0 0.0
2018-Jun-17 04:28N 38°32' W 028°37'0 0.0
2018-Jun-17 03:58N 38°32' W 028°37'0 0.0
2018-Jun-17 03:28N 38°32' W 028°37'0 0.0
2018-Jun-17 02:58N 38°32' W 028°37'0 0.0
2018-Jun-17 02:28N 38°32' W 028°37'0 0.0
2018-Jun-17 01:58N 38°32' W 028°37'0 0.0
2018-Jun-17 01:28N 38°32' W 028°37'0 0.0
2018-Jun-17 00:58N 38°32' W 028°37'0 0.0
2018-Jun-17 00:28N 38°32' W 028°37'0 0.0
2018-Jun-16 23:58N 38°32' W 028°37'0 0.0
2018-Jun-16 23:25N 38°32' W 028°37'0 0.0
2018-Jun-16 22:58N 38°32' W 028°37'0 0.0
2018-Jun-16 22:28N 38°32' W 028°37'0 0.0
2018-Jun-16 21:58N 38°32' W 028°37'0 0.0
2018-Jun-16 21:28N 38°32' W 028°37'0 0.0
2018-Jun-16 20:58N 38°32' W 028°37'0 0.0
2018-Jun-16 20:28N 38°32' W 028°37'0 0.0
2018-Jun-16 19:58N 38°32' W 028°37'0 0.0
2018-Jun-16 19:28N 38°32' W 028°37'0 0.0
2018-Jun-16 18:55N 38°32' W 028°37'0 0.0
2018-Jun-16 18:28N 38°32' W 028°37'0 0.0
2018-Jun-16 17:58N 38°32' W 028°37'0 0.0
2018-Jun-16 17:28N 38°32' W 028°37'0 0.0
2018-Jun-16 16:58N 38°32' W 028°37'0 0.0
2018-Jun-16 16:28N 38°32' W 028°37'0 0.0
2018-Jun-16 15:58N 38°32' W 028°37'0 0.0
2018-Jun-16 15:28N 38°32' W 028°37'0 0.0
2018-Jun-16 14:58N 38°32' W 028°37'0 0.0
2018-Jun-16 14:28N 38°32' W 028°37'0 0.0
2018-Jun-16 13:58N 38°32' W 028°37'0 0.0
2018-Jun-16 13:28N 38°32' W 028°37'0 0.0
2018-Jun-16 12:58N 38°32' W 028°37'0 0.0
2018-Jun-16 12:28N 38°32' W 028°37'0 0.0
2018-Jun-16 11:58N 38°32' W 028°37'0 0.0
2018-Jun-16 11:25N 38°32' W 028°37'0 0.0
2018-Jun-16 10:58N 38°32' W 028°37'0 0.0
2018-Jun-16 10:28N 38°32' W 028°37'0 0.0
2018-Jun-16 09:58N 38°32' W 028°37'0 0.0
2018-Jun-16 09:28N 38°32' W 028°37'0 0.0
2018-Jun-16 08:58N 38°32' W 028°37'0 0.0
2018-Jun-16 08:28N 38°32' W 028°37'0 0.0
2018-Jun-16 07:58N 38°32' W 028°37'0 0.0
2018-Jun-16 07:28N 38°32' W 028°37'0 0.0
2018-Jun-16 06:58N 38°32' W 028°37'0 0.0
2018-Jun-16 06:28N 38°32' W 028°37'0 0.0
2018-Jun-16 05:58N 38°32' W 028°37'0 0.0
2018-Jun-16 05:25N 38°32' W 028°37'0 0.0
2018-Jun-16 04:58N 38°32' W 028°37'0 0.0
2018-Jun-16 04:28N 38°32' W 028°37'0 0.0
2018-Jun-16 03:58N 38°32' W 028°37'0 0.0
2018-Jun-16 03:28N 38°32' W 028°37'0 0.0
2018-Jun-16 02:58N 38°32' W 028°37'0 0.0
2018-Jun-16 02:28N 38°32' W 028°37'0 0.0
2018-Jun-16 01:58N 38°32' W 028°37'0 0.0
2018-Jun-16 01:28N 38°32' W 028°37'0 0.0
2018-Jun-16 00:58N 38°32' W 028°37'0 0.0
2018-Jun-16 00:28N 38°32' W 028°37'0 0.0
2018-Jun-15 23:58N 38°32' W 028°37'0 0.0
2018-Jun-15 23:28N 38°32' W 028°37'0 0.0
2018-Jun-15 22:58N 38°32' W 028°37'0 0.0
2018-Jun-15 22:28N 38°32' W 028°37'0 0.0
2018-Jun-15 21:58N 38°32' W 028°37'0 0.0
2018-Jun-15 21:28N 38°32' W 028°37'0 0.0
2018-Jun-15 20:58N 38°32' W 028°37'0 0.0
2018-Jun-15 20:28N 38°32' W 028°37'0 0.0
2018-Jun-15 19:58N 38°32' W 028°37'0 0.0
2018-Jun-15 19:28N 38°32' W 028°37'0 0.0
2018-Jun-15 18:58N 38°32' W 028°37'0 0.0
2018-Jun-15 18:28N 38°32' W 028°37'0 0.0
2018-Jun-15 17:58N 38°32' W 028°37'0 0.0
2018-Jun-15 17:28N 38°32' W 028°37'0 0.0
2018-Jun-15 16:58N 38°32' W 028°37'0 0.0
2018-Jun-15 16:28N 38°32' W 028°37'0 0.0
2018-Jun-15 15:58N 38°32' W 028°37'0 0.0
2018-Jun-15 15:28N 38°32' W 028°37'0 0.0
2018-Jun-15 14:58N 38°32' W 028°37'0 0.0
2018-Jun-15 14:28N 38°32' W 028°37'0 0.0
2018-Jun-15 13:58N 38°32' W 028°37'0 0.0
2018-Jun-15 13:28N 38°32' W 028°37'0 0.0
2018-Jun-15 12:58N 38°32' W 028°37'0 0.0
2018-Jun-15 12:28N 38°32' W 028°37'0 0.0
2018-Jun-15 11:58N 38°32' W 028°37'0 0.0
2018-Jun-15 11:25N 38°32' W 028°37'0 0.0
2018-Jun-15 10:55N 38°32' W 028°37'0 0.0
2018-Jun-15 10:28N 38°32' W 028°37'0 0.0
2018-Jun-15 09:58N 38°32' W 028°37'0 0.0
2018-Jun-15 09:28N 38°32' W 028°37'0 0.0
2018-Jun-15 08:58N 38°32' W 028°37'0 0.0
2018-Jun-15 08:28N 38°32' W 028°37'0 0.0
2018-Jun-15 07:58N 38°32' W 028°37'0 0.0
2018-Jun-15 07:28N 38°32' W 028°37'0 0.0
2018-Jun-15 06:58N 38°32' W 028°37'0 0.0
2018-Jun-15 06:28N 38°32' W 028°37'0 0.0
2018-Jun-15 05:58N 38°32' W 028°37'0 0.0
2018-Jun-15 05:28N 38°32' W 028°37'0 0.0
2018-Jun-15 04:58N 38°32' W 028°37'0 0.0
2018-Jun-15 04:28N 38°32' W 028°37'0 0.0
2018-Jun-15 03:58N 38°32' W 028°37'0 0.0
2018-Jun-15 03:28N 38°32' W 028°37'0 0.0
2018-Jun-15 02:58N 38°32' W 028°37'0 0.0
2018-Jun-15 02:28N 38°32' W 028°37'0 0.0
2018-Jun-15 01:58N 38°32' W 028°37'0 0.0
2018-Jun-15 01:28N 38°32' W 028°37'0 0.0
2018-Jun-15 00:55N 38°32' W 028°37'0 0.0
2018-Jun-15 00:28N 38°32' W 028°37'0 0.0
2018-Jun-14 23:58N 38°32' W 028°37'0 0.0
2018-Jun-14 23:28N 38°32' W 028°37'0 0.0
2018-Jun-14 22:58N 38°32' W 028°37'0 0.0
2018-Jun-14 22:28N 38°32' W 028°37'0 0.0
2018-Jun-14 21:58N 38°32' W 028°37'0 0.0
2018-Jun-14 21:25N 38°32' W 028°37'0 0.0
2018-Jun-14 20:58N 38°32' W 028°37'0 0.0
2018-Jun-14 20:25N 38°32' W 028°37'0 0.0
2018-Jun-14 19:55N 38°32' W 028°37'0 0.0
2018-Jun-14 19:28N 38°32' W 028°37'0 0.0
2018-Jun-14 18:58N 38°32' W 028°37'0 0.0
2018-Jun-14 18:28N 38°32' W 028°37'0 0.0
2018-Jun-14 17:58N 38°32' W 028°37'0 0.0
2018-Jun-14 17:28N 38°32' W 028°37'0 0.0
2018-Jun-14 16:58N 38°32' W 028°37'0 0.0
2018-Jun-14 16:28N 38°32' W 028°37'0 0.0
2018-Jun-14 15:58N 38°32' W 028°37'0 0.0
2018-Jun-14 15:28N 38°32' W 028°37'0 0.0
2018-Jun-14 14:58N 38°32' W 028°37'0 0.0
2018-Jun-14 14:28N 38°32' W 028°37'0 0.0
2018-Jun-14 13:58N 38°32' W 028°37'0 0.0
2018-Jun-14 13:28N 38°32' W 028°37'0 0.0
2018-Jun-14 12:58N 38°32' W 028°37'0 0.0
2018-Jun-14 12:28N 38°32' W 028°37'0 0.0
2018-Jun-14 11:58N 38°32' W 028°37'0 0.0
2018-Jun-14 11:28N 38°32' W 028°37'0 0.0
2018-Jun-14 10:58N 38°32' W 028°37'0 0.0
2018-Jun-14 10:28N 38°32' W 028°37'0 0.0
2018-Jun-14 09:58N 38°32' W 028°37'0 0.0
2018-Jun-14 09:28N 38°32' W 028°37'0 0.0
2018-Jun-14 08:58N 38°32' W 028°37'0 0.0
2018-Jun-14 08:28N 38°32' W 028°37'0 0.0
2018-Jun-14 07:52N 38°32' W 028°37'0 0.0
2018-Jun-14 07:28N 38°32' W 028°37'0 0.0
2018-Jun-14 06:58N 38°32' W 028°37'0 0.0
2018-Jun-14 06:28N 38°32' W 028°37'0 0.0
2018-Jun-14 05:58N 38°32' W 028°37'0 0.0
2018-Jun-14 05:28N 38°32' W 028°37'0 0.0
2018-Jun-14 04:58N 38°32' W 028°37'0 0.0
2018-Jun-14 04:28N 38°32' W 028°37'0 0.0
2018-Jun-14 03:58N 38°32' W 028°37'0 0.0
2018-Jun-14 03:28N 38°32' W 028°37'0 0.0
2018-Jun-14 02:58N 38°32' W 028°37'0 0.0
2018-Jun-14 02:28N 38°32' W 028°37'0 0.0
2018-Jun-14 01:58N 38°32' W 028°37'0 0.0
2018-Jun-14 01:28N 38°32' W 028°37'0 0.0
2018-Jun-14 00:58N 38°32' W 028°37'0 0.0
2018-Jun-14 00:28N 38°32' W 028°37'0 0.0
2018-Jun-13 23:58N 38°32' W 028°37'0 0.0
2018-Jun-13 23:28N 38°32' W 028°37'0 0.0
2018-Jun-13 22:58N 38°32' W 028°37'0 0.0
2018-Jun-13 22:28N 38°32' W 028°37'0 0.0
2018-Jun-13 21:55N 38°32' W 028°37'0 0.0
2018-Jun-13 21:28N 38°32' W 028°37'0 0.0
2018-Jun-13 20:58N 38°32' W 028°37'0 0.0
2018-Jun-13 20:28N 38°32' W 028°37'0 0.0
2018-Jun-13 19:58N 38°32' W 028°37'0 0.0
2018-Jun-13 19:28N 38°32' W 028°37'0 0.0
2018-Jun-13 18:58N 38°32' W 028°37'0 0.0
2018-Jun-13 18:28N 38°32' W 028°37'0 0.0
2018-Jun-13 17:58N 38°32' W 028°37'0 0.0
2018-Jun-13 17:25N 38°32' W 028°37'0 0.0
2018-Jun-13 16:58N 38°32' W 028°37'0 0.0
2018-Jun-13 16:28N 38°32' W 028°37'0 0.0
2018-Jun-13 15:58N 38°32' W 028°37'0 0.0
2018-Jun-13 15:28N 38°32' W 028°37'0 0.0
2018-Jun-13 14:58N 38°32' W 028°37'0 0.0
2018-Jun-13 14:28N 38°32' W 028°37'0 0.0
2018-Jun-13 13:55N 38°32' W 028°37'0 0.0
2018-Jun-13 13:28N 38°32' W 028°37'0 0.0
2018-Jun-13 12:58N 38°32' W 028°37'0 0.0
2018-Jun-13 12:28N 38°32' W 028°37'0 0.0
2018-Jun-13 11:55N 38°32' W 028°37'0 0.0
2018-Jun-13 11:28N 38°32' W 028°37'0 0.0
2018-Jun-13 10:58N 38°32' W 028°37'0 0.0
2018-Jun-13 10:28N 38°32' W 028°37'0 0.0
2018-Jun-13 09:58N 38°32' W 028°37'0 0.0
2018-Jun-13 09:28N 38°32' W 028°37'0 0.0
2018-Jun-13 08:58N 38°32' W 028°37'  
Track history (hours):
 
Tides and Currents Weather Stations Pressure Air Temp Water Temp Dewpoint Dewpoint Depression Visibility Wind Speed Wind Dir Waves Ship Positions

Quiset

Last reported at 2018-Jun-23 08:58 UTC. Time now 2018-Jun-23 10:11 UTC.
Position N 38°41' W 028°12'.

MMSI: 244020394.

Date/timePositionNaut miles runAvg speedWind from/ knotsBaromVisibWave heightAir tempDewpointWater temp
2018-Jun-23 08:58N 38°41' W 028°12'0 0.0
2018-Jun-23 08:30N 38°41' W 028°12'0 0.0
2018-Jun-23 07:07N 38°41' W 028°12'0 0.0
2018-Jun-23 06:55N 38°41' W 028°12'0 0.0
2018-Jun-23 06:13N 38°41' W 028°12'0 0.0
2018-Jun-23 05:55N 38°41' W 028°12'0 0.0
2018-Jun-23 05:25N 38°41' W 028°12'0 0.0
2018-Jun-23 05:01N 38°41' W 028°12'0 0.0
2018-Jun-23 04:30N 38°41' W 028°12'0 0.0
2018-Jun-23 03:37N 38°41' W 028°12'0 0.0
2018-Jun-23 03:24N 38°41' W 028°12'0 0.0
2018-Jun-23 02:58N 38°41' W 028°12'0 0.0
2018-Jun-23 02:25N 38°41' W 028°12'0 0.0
2018-Jun-23 01:43N 38°41' W 028°12'0 0.0
2018-Jun-22 17:49N 38°41' W 028°12'0 0.0
2018-Jun-22 16:43N 38°41' W 028°12'0 0.0
2018-Jun-22 16:13N 38°41' W 028°12'0 0.0
2018-Jun-22 16:00N 38°41' W 028°12'0 0.0
2018-Jun-22 15:19N 38°41' W 028°12'0 0.0
2018-Jun-22 12:49N 38°41' W 028°12'0 0.1
2018-Jun-22 12:11N 38°41' W 028°12'0 0.1
2018-Jun-22 12:00N 38°41' W 028°12'0 0.0
2018-Jun-22 11:27N 38°41' W 028°12'0 0.0
2018-Jun-22 11:00N 38°41' W 028°12'0 0.0
2018-Jun-22 10:24N 38°41' W 028°12'0 0.0
2018-Jun-22 10:00N 38°41' W 028°12'0 0.0
2018-Jun-22 09:27N 38°41' W 028°12'0 0.0
2018-Jun-22 09:00N 38°41' W 028°12'0 0.0
2018-Jun-22 08:27N 38°41' W 028°12'0 0.0
2018-Jun-22 08:00N 38°41' W 028°12'0 0.0
2018-Jun-22 07:30N 38°41' W 028°12'0 0.0
2018-Jun-22 07:00N 38°41' W 028°12'0 0.0
2018-Jun-22 06:30N 38°41' W 028°12'0 0.0
2018-Jun-22 05:54N 38°41' W 028°12'0 0.0
2018-Jun-22 05:24N 38°41' W 028°12'0 0.0
2018-Jun-22 04:39N 38°41' W 028°12'0 0.0
2018-Jun-22 04:24N 38°41' W 028°12'0 0.0
2018-Jun-22 04:00N 38°41' W 028°12'0 0.0
2018-Jun-22 03:24N 38°41' W 028°12'0 0.0
2018-Jun-22 02:12N 38°41' W 028°12'0 0.0
2018-Jun-22 01:39N 38°41' W 028°12'0 0.0
2018-Jun-22 01:15N 38°41' W 028°12'0 0.0
2018-Jun-22 00:57N 38°41' W 028°12'0 0.0
2018-Jun-22 00:30N 38°41' W 028°12'0 0.0
2018-Jun-22 00:00N 38°41' W 028°12'0 0.0
2018-Jun-21 23:30N 38°41' W 028°12'0 0.0
2018-Jun-21 22:12N 38°41' W 028°12'0 0.0
2018-Jun-21 22:00N 38°41' W 028°12'0 0.0
2018-Jun-21 21:24N 38°41' W 028°12'0 0.0
2018-Jun-21 21:00N 38°41' W 028°12'0 0.0
2018-Jun-21 20:30N 38°41' W 028°12'0 0.3
2018-Jun-21 20:00N 38°41' W 028°12'2 4.3
2018-Jun-21 19:30N 38°40' W 028°15'2 5.0
2018-Jun-21 19:00N 38°39' W 028°18'3 5.7
2018-Jun-21 18:30N 38°38' W 028°21'3 5.7
2018-Jun-21 18:00N 38°38' W 028°25'3 5.5
2018-Jun-21 17:30N 38°37' W 028°28'2 3.5
2018-Jun-21 17:00N 38°36' W 028°30'2 3.5
2018-Jun-21 16:30N 38°35' W 028°32'2 3.6
2018-Jun-21 16:00N 38°35' W 028°34'1 2.6
2018-Jun-21 15:31N 38°33' W 028°35'2 3.9
2018-Jun-21 15:00N 38°32' W 028°33'2 4.5
2018-Jun-21 14:30N 38°32' W 028°36'1 2.2
2018-Jun-21 14:00N 38°32' W 028°37'0 0.0
2018-Jun-21 13:29N 38°32' W 028°37'0 0.0
2018-Jun-21 12:59N 38°32' W 028°37'0 0.0
2018-Jun-21 12:28N 38°32' W 028°37'0 0.0
2018-Jun-21 11:59N 38°32' W 028°37'0 0.0
2018-Jun-21 11:26N 38°32' W 028°37'0 0.0
2018-Jun-21 10:58N 38°32' W 028°37'0 0.0
2018-Jun-21 10:29N 38°32' W 028°37'0 0.0
2018-Jun-21 09:59N 38°32' W 028°37'0 0.0
2018-Jun-21 09:28N 38°32' W 028°37'0 0.0
2018-Jun-21 08:59N 38°32' W 028°37'0 0.0
2018-Jun-21 08:29N 38°32' W 028°37'0 0.0
2018-Jun-21 07:58N 38°32' W 028°37'0 0.0
2018-Jun-21 07:29N 38°32' W 028°37'0 0.0
2018-Jun-21 06:59N 38°32' W 028°37'0 0.0
2018-Jun-21 06:28N 38°32' W 028°37'0 0.0
2018-Jun-21 05:58N 38°32' W 028°37'0 0.0
2018-Jun-21 05:29N 38°32' W 028°37'0 0.0
2018-Jun-21 04:58N 38°32' W 028°37'0 0.0
2018-Jun-21 04:28N 38°32' W 028°37'0 0.0
2018-Jun-21 03:58N 38°32' W 028°37'0 0.0
2018-Jun-21 03:28N 38°32' W 028°37'0 0.0
2018-Jun-21 02:58N 38°32' W 028°37'0 0.0
2018-Jun-21 02:28N 38°32' W 028°37'0 0.0
2018-Jun-21 01:58N 38°32' W 028°37'0 0.0
2018-Jun-21 01:28N 38°32' W 028°37'0 0.0
2018-Jun-21 00:58N 38°32' W 028°37'0 0.0
2018-Jun-21 00:22N 38°32' W 028°37'0 0.0
2018-Jun-20 23:58N 38°32' W 028°37'0 0.0
2018-Jun-20 23:25N 38°32' W 028°37'0 0.0
2018-Jun-20 22:58N 38°32' W 028°37'0 0.0
2018-Jun-20 22:28N 38°32' W 028°37'0 0.0
2018-Jun-20 21:58N 38°32' W 028°37'0 0.0
2018-Jun-20 21:28N 38°32' W 028°37'0 0.0
2018-Jun-20 20:58N 38°32' W 028°37'0 0.0
2018-Jun-20 20:28N 38°32' W 028°37'0 0.0
2018-Jun-20 19:58N 38°32' W 028°37'0 0.0
2018-Jun-20 19:28N 38°32' W 028°37'0 0.0
2018-Jun-20 18:58N 38°32' W 028°37'0 0.0
2018-Jun-20 18:28N 38°32' W 028°37'0 0.0
2018-Jun-20 17:58N 38°32' W 028°37'0 0.0
2018-Jun-20 17:28N 38°32' W 028°37'0 0.0
2018-Jun-20 16:58N 38°32' W 028°37'0 0.0
2018-Jun-20 16:28N 38°32' W 028°37'0 0.0
2018-Jun-20 15:58N 38°32' W 028°37'0 0.0
2018-Jun-20 15:28N 38°32' W 028°37'0 0.0
2018-Jun-20 14:58N 38°32' W 028°37'0 0.0
2018-Jun-20 14:28N 38°32' W 028°37'0 0.0
2018-Jun-20 13:58N 38°32' W 028°37'0 0.0
2018-Jun-20 13:28N 38°32' W 028°37'0 0.0
2018-Jun-20 12:58N 38°32' W 028°37'0 0.0
2018-Jun-20 12:28N 38°32' W 028°37'0 0.0
2018-Jun-20 11:58N 38°32' W 028°37'0 0.0
2018-Jun-20 11:28N 38°32' W 028°37'0 0.0
2018-Jun-20 10:58N 38°32' W 028°37'0 0.0
2018-Jun-20 10:28N 38°32' W 028°37'0 0.0
2018-Jun-20 09:58N 38°32' W 028°37'0 0.0
2018-Jun-20 09:28N 38°32' W 028°37'0 0.0
2018-Jun-20 08:58N 38°32' W 028°37'0 0.0
2018-Jun-20 08:28N 38°32' W 028°37'0 0.0
2018-Jun-20 07:58N 38°32' W 028°37'0 0.0
2018-Jun-20 07:28N 38°32' W 028°37'0 0.0
2018-Jun-20 06:58N 38°32' W 028°37'0 0.0
2018-Jun-20 06:28N 38°32' W 028°37'0 0.0
2018-Jun-20 05:55N 38°32' W 028°37'0 0.0
2018-Jun-20 05:28N 38°32' W 028°37'0 0.0
2018-Jun-20 04:58N 38°32' W 028°37'0 0.0
2018-Jun-20 04:28N 38°32' W 028°37'0 0.0
2018-Jun-20 03:58N 38°32' W 028°37'0 0.0
2018-Jun-20 03:28N 38°32' W 028°37'0 0.0
2018-Jun-20 02:58N 38°32' W 028°37'0 0.0
2018-Jun-20 02:28N 38°32' W 028°37'0 0.0
2018-Jun-20 01:58N 38°32' W 028°37'0 0.0
2018-Jun-20 01:28N 38°32' W 028°37'0 0.0
2018-Jun-20 00:58N 38°32' W 028°37'0 0.0
2018-Jun-20 00:28N 38°32' W 028°37'0 0.0
2018-Jun-19 23:58N 38°32' W 028°37'0 0.0
2018-Jun-19 23:28N 38°32' W 028°37'0 0.0
2018-Jun-19 22:58N 38°32' W 028°37'0 0.0
2018-Jun-19 22:28N 38°32' W 028°37'0 0.0
2018-Jun-19 21:58N 38°32' W 028°37'0 0.0
2018-Jun-19 21:28N 38°32' W 028°37'0 0.0
2018-Jun-19 20:58N 38°32' W 028°37'0 0.0
2018-Jun-19 20:28N 38°32' W 028°37'0 0.0
2018-Jun-19 19:58N 38°32' W 028°37'0 0.0
2018-Jun-19 19:28N 38°32' W 028°37'0 0.0
2018-Jun-19 18:55N 38°32' W 028°37'0 0.0
2018-Jun-19 18:28N 38°32' W 028°37'0 0.0
2018-Jun-19 17:58N 38°32' W 028°37'0 0.0
2018-Jun-19 17:28N 38°32' W 028°37'0 0.0
2018-Jun-19 16:58N 38°32' W 028°37'0 0.0
2018-Jun-19 16:28N 38°32' W 028°37'0 0.0
2018-Jun-19 15:55N 38°32' W 028°37'0 0.0
2018-Jun-19 15:28N 38°32' W 028°37'0 0.0
2018-Jun-19 14:58N 38°32' W 028°37'0 0.0
2018-Jun-19 14:28N 38°32' W 028°37'0 0.0
2018-Jun-19 13:58N 38°32' W 028°37'0 0.0
2018-Jun-19 13:28N 38°32' W 028°38'0 0.0
2018-Jun-19 12:58N 38°32' W 028°37'0 0.0
2018-Jun-19 12:28N 38°32' W 028°37'0 0.0
2018-Jun-19 11:58N 38°32' W 028°38'0 0.0
2018-Jun-19 11:28N 38°32' W 028°37'0 0.0
2018-Jun-19 10:58N 38°32' W 028°37'0 0.0
2018-Jun-19 10:28N 38°32' W 028°37'0 0.0
2018-Jun-19 09:58N 38°32' W 028°37'0 0.0
2018-Jun-19 09:28N 38°32' W 028°37'0 0.0
2018-Jun-19 08:58N 38°32' W 028°38'0 0.0
2018-Jun-19 08:28N 38°32' W 028°37'0 0.0
2018-Jun-19 07:58N 38°32' W 028°38'0 0.0
2018-Jun-19 07:28N 38°32' W 028°38'0 0.0
2018-Jun-19 06:58N 38°32' W 028°38'0 0.0
2018-Jun-19 06:28N 38°32' W 028°38'0 0.0
2018-Jun-19 05:58N 38°32' W 028°37'0 0.0
2018-Jun-19 05:25N 38°32' W 028°37'0 0.0
2018-Jun-19 04:58N 38°32' W 028°37'0 0.0
2018-Jun-19 04:25N 38°32' W 028°37'0 0.0
2018-Jun-19 03:58N 38°32' W 028°37'0 0.0
2018-Jun-19 03:28N 38°32' W 028°37'0 0.0
2018-Jun-19 02:58N 38°32' W 028°37'0 0.0
2018-Jun-19 02:28N 38°32' W 028°37'0 0.0
2018-Jun-19 01:58N 38°32' W 028°37'0 0.0
2018-Jun-19 01:28N 38°32' W 028°37'0 0.0
2018-Jun-19 00:55N 38°32' W 028°37'0 0.0
2018-Jun-19 00:28N 38°32' W 028°37'0 0.0
2018-Jun-18 23:58N 38°32' W 028°37'0 0.0
2018-Jun-18 23:28N 38°32' W 028°37'0 0.0
2018-Jun-18 22:58N 38°32' W 028°37'0 0.0
2018-Jun-18 22:28N 38°32' W 028°37'0 0.0
2018-Jun-18 21:58N 38°32' W 028°37'0 0.0
2018-Jun-18 21:28N 38°32' W 028°37'0 0.0
2018-Jun-18 20:58N 38°32' W 028°37'0 0.0
2018-Jun-18 20:28N 38°32' W 028°37'0 0.0
2018-Jun-18 19:58N 38°32' W 028°37'0 0.0
2018-Jun-18 19:25N 38°32' W 028°37'0 0.0
2018-Jun-18 18:58N 38°32' W 028°37'0 0.0
2018-Jun-18 18:28N 38°32' W 028°37'0 0.0
2018-Jun-18 17:58N 38°32' W 028°37'0 0.0
2018-Jun-18 17:25N 38°32' W 028°37'0 0.0
2018-Jun-18 16:58N 38°32' W 028°37'0 0.0
2018-Jun-18 16:28N 38°32' W 028°37'0 0.0
2018-Jun-18 15:58N 38°32' W 028°37'0 0.0
2018-Jun-18 15:28N 38°32' W 028°37'0 0.0
2018-Jun-18 14:58N 38°32' W 028°37'0 0.0
2018-Jun-18 14:28N 38°32' W 028°37'0 0.0
2018-Jun-18 13:58N 38°32' W 028°37'0 0.0
2018-Jun-18 13:28N 38°32' W 028°37'0 0.0
2018-Jun-18 12:58N 38°32' W 028°37'0 0.0
2018-Jun-18 12:25N 38°32' W 028°37'0 0.0
2018-Jun-18 11:58N 38°32' W 028°37'0 0.0
2018-Jun-18 11:28N 38°32' W 028°37'0 0.0
2018-Jun-18 10:58N 38°32' W 028°37'0 0.0
2018-Jun-18 10:28N 38°32' W 028°37'0 0.0
2018-Jun-18 09:46N 38°32' W 028°37'0 0.0
2018-Jun-18 09:25N 38°32' W 028°37'0 0.0
2018-Jun-18 08:58N 38°32' W 028°37'0 0.0
2018-Jun-18 08:28N 38°32' W 028°37'0 0.0
2018-Jun-18 07:58N 38°32' W 028°37'0 0.0
2018-Jun-18 07:28N 38°32' W 028°37'0 0.0
2018-Jun-18 06:58N 38°32' W 028°37'0 0.0
2018-Jun-18 06:28N 38°32' W 028°37'0 0.0
2018-Jun-18 05:58N 38°32' W 028°37'0 0.0
2018-Jun-18 05:28N 38°32' W 028°37'0 0.0
2018-Jun-18 04:58N 38°32' W 028°37'0 0.0
2018-Jun-18 04:28N 38°32' W 028°37'0 0.0
2018-Jun-18 03:58N 38°32' W 028°37'0 0.0
2018-Jun-18 03:28N 38°32' W 028°37'0 0.0
2018-Jun-18 02:58N 38°32' W 028°37'0 0.0
2018-Jun-18 02:28N 38°32' W 028°37'0 0.0
2018-Jun-18 01:58N 38°32' W 028°37'0 0.0
2018-Jun-18 01:28N 38°32' W 028°37'0 0.0
2018-Jun-18 00:58N 38°32' W 028°37'0 0.0
2018-Jun-18 00:25N 38°32' W 028°37'0 0.0
2018-Jun-17 23:58N 38°32' W 028°37'0 0.0
2018-Jun-17 23:28N 38°32' W 028°37'0 0.0
2018-Jun-17 22:58N 38°32' W 028°37'0 0.0
2018-Jun-17 22:28N 38°32' W 028°37'0 0.0
2018-Jun-17 21:52N 38°32' W 028°37'0 0.0
2018-Jun-17 21:28N 38°32' W 028°37'0 0.0
2018-Jun-17 20:58N 38°32' W 028°37'0 0.0
2018-Jun-17 20:25N 38°32' W 028°37'0 0.0
2018-Jun-17 19:58N 38°32' W 028°37'0 0.0
2018-Jun-17 19:28N 38°32' W 028°37'0 0.0
2018-Jun-17 18:58N 38°32' W 028°37'0 0.0
2018-Jun-17 18:28N 38°32' W 028°37'0 0.0
2018-Jun-17 17:58N 38°32' W 028°37'0 0.0
2018-Jun-17 17:28N 38°32' W 028°37'0 0.0
2018-Jun-17 16:58N 38°32' W 028°37'0 0.0
2018-Jun-17 16:28N 38°32' W 028°37'0 0.0
2018-Jun-17 15:58N 38°32' W 028°37'0 0.0
2018-Jun-17 15:28N 38°32' W 028°37'0 0.0
2018-Jun-17 14:58N 38°32' W 028°37'0 0.0
2018-Jun-17 14:28N 38°32' W 028°37'0 0.0
2018-Jun-17 13:58N 38°32' W 028°37'0 0.0
2018-Jun-17 13:28N 38°32' W 028°37'0 0.0
2018-Jun-17 12:58N 38°32' W 028°37'0 0.0
2018-Jun-17 12:28N 38°32' W 028°37'0 0.0
2018-Jun-17 11:58N 38°32' W 028°37'0 0.0
2018-Jun-17 11:28N 38°32' W 028°37'0 0.0
2018-Jun-17 10:58N 38°32' W 028°37'0 0.0
2018-Jun-17 10:28N 38°32' W 028°37'0 0.0
2018-Jun-17 09:58N 38°32' W 028°37'0 0.0
2018-Jun-17 09:28N 38°32' W 028°37'0 0.0
2018-Jun-17 08:58N 38°32' W 028°37'0 0.0
2018-Jun-17 08:28N 38°32' W 028°37'0 0.0
2018-Jun-17 07:58N 38°32' W 028°37'0 0.0
2018-Jun-17 07:28N 38°32' W 028°37'0 0.0
2018-Jun-17 06:58N 38°32' W 028°37'0 0.0
2018-Jun-17 06:28N 38°32' W 028°37'0 0.0
2018-Jun-17 05:58N 38°32' W 028°37'0 0.0
2018-Jun-17 05:28N 38°32' W 028°37'0 0.0
2018-Jun-17 04:58N 38°32' W 028°37'0 0.0
2018-Jun-17 04:28N 38°32' W 028°37'0 0.0
2018-Jun-17 03:58N 38°32' W 028°37'0 0.0
2018-Jun-17 03:28N 38°32' W 028°37'0 0.0
2018-Jun-17 02:58N 38°32' W 028°37'0 0.0
2018-Jun-17 02:28N 38°32' W 028°37'0 0.0
2018-Jun-17 01:58N 38°32' W 028°37'0 0.0
2018-Jun-17 01:28N 38°32' W 028°37'0 0.0
2018-Jun-17 00:58N 38°32' W 028°37'0 0.0
2018-Jun-17 00:28N 38°32' W 028°37'0 0.0
2018-Jun-16 23:58N 38°32' W 028°37'0 0.0
2018-Jun-16 23:25N 38°32' W 028°37'0 0.0
2018-Jun-16 22:58N 38°32' W 028°37'0 0.0
2018-Jun-16 22:28N 38°32' W 028°37'0 0.0
2018-Jun-16 21:58N 38°32' W 028°37'0 0.0
2018-Jun-16 21:28N 38°32' W 028°37'0 0.0
2018-Jun-16 20:58N 38°32' W 028°37'0 0.0
2018-Jun-16 20:28N 38°32' W 028°37'0 0.0
2018-Jun-16 19:58N 38°32' W 028°37'0 0.0
2018-Jun-16 19:28N 38°32' W 028°37'0 0.0
2018-Jun-16 18:55N 38°32' W 028°37'0 0.0
2018-Jun-16 18:28N 38°32' W 028°37'0 0.0
2018-Jun-16 17:58N 38°32' W 028°37'0 0.0
2018-Jun-16 17:28N 38°32' W 028°37'0 0.0
2018-Jun-16 16:58N 38°32' W 028°37'0 0.0
2018-Jun-16 16:28N 38°32' W 028°37'0 0.0
2018-Jun-16 15:58N 38°32' W 028°37'0 0.0
2018-Jun-16 15:28N 38°32' W 028°37'0 0.0
2018-Jun-16 14:58N 38°32' W 028°37'0 0.0
2018-Jun-16 14:28N 38°32' W 028°37'0 0.0
2018-Jun-16 13:58N 38°32' W 028°37'0 0.0
2018-Jun-16 13:28N 38°32' W 028°37'0 0.0
2018-Jun-16 12:58N 38°32' W 028°37'0 0.0
2018-Jun-16 12:28N 38°32' W 028°37'0 0.0
2018-Jun-16 11:58N 38°32' W 028°37'0 0.0
2018-Jun-16 11:25N 38°32' W 028°37'0 0.0
2018-Jun-16 10:58N 38°32' W 028°37'0 0.0
2018-Jun-16 10:28N 38°32' W 028°37'0 0.0
2018-Jun-16 09:58N 38°32' W 028°37'0 0.0
2018-Jun-16 09:28N 38°32' W 028°37'0 0.0
2018-Jun-16 08:58N 38°32' W 028°37'0 0.0
2018-Jun-16 08:28N 38°32' W 028°37'0 0.0
2018-Jun-16 07:58N 38°32' W 028°37'0 0.0
2018-Jun-16 07:28N 38°32' W 028°37'0 0.0
2018-Jun-16 06:58N 38°32' W 028°37'0 0.0
2018-Jun-16 06:28N 38°32' W 028°37'0 0.0
2018-Jun-16 05:58N 38°32' W 028°37'0 0.0
2018-Jun-16 05:25N 38°32' W 028°37'0 0.0
2018-Jun-16 04:58N 38°32' W 028°37'0 0.0
2018-Jun-16 04:28N 38°32' W 028°37'0 0.0
2018-Jun-16 03:58N 38°32' W 028°37'0 0.0
2018-Jun-16 03:28N 38°32' W 028°37'0 0.0
2018-Jun-16 02:58N 38°32' W 028°37'0 0.0
2018-Jun-16 02:28N 38°32' W 028°37'0 0.0
2018-Jun-16 01:58N 38°32' W 028°37'0 0.0
2018-Jun-16 01:28N 38°32' W 028°37'0 0.0
2018-Jun-16 00:58N 38°32' W 028°37'0 0.0
2018-Jun-16 00:28N 38°32' W 028°37'0 0.0
2018-Jun-15 23:58N 38°32' W 028°37'0 0.0
2018-Jun-15 23:28N 38°32' W 028°37'0 0.0
2018-Jun-15 22:58N 38°32' W 028°37'0 0.0
2018-Jun-15 22:28N 38°32' W 028°37'0 0.0
2018-Jun-15 21:58N 38°32' W 028°37'0 0.0
2018-Jun-15 21:28N 38°32' W 028°37'0 0.0
2018-Jun-15 20:58N 38°32' W 028°37'0 0.0
2018-Jun-15 20:28N 38°32' W 028°37'0 0.0
2018-Jun-15 19:58N 38°32' W 028°37'0 0.0
2018-Jun-15 19:28N 38°32' W 028°37'0 0.0
2018-Jun-15 18:58N 38°32' W 028°37'0 0.0
2018-Jun-15 18:28N 38°32' W 028°37'0 0.0
2018-Jun-15 17:58N 38°32' W 028°37'0 0.0
2018-Jun-15 17:28N 38°32' W 028°37'0 0.0
2018-Jun-15 16:58N 38°32' W 028°37'0 0.0
2018-Jun-15 16:28N 38°32' W 028°37'0 0.0
2018-Jun-15 15:58N 38°32' W 028°37'0 0.0
2018-Jun-15 15:28N 38°32' W 028°37'0 0.0
2018-Jun-15 14:58N 38°32' W 028°37'0 0.0
2018-Jun-15 14:28N 38°32' W 028°37'0 0.0
2018-Jun-15 13:58N 38°32' W 028°37'0 0.0
2018-Jun-15 13:28N 38°32' W 028°37'0 0.0
2018-Jun-15 12:58N 38°32' W 028°37'0 0.0
2018-Jun-15 12:28N 38°32' W 028°37'0 0.0
2018-Jun-15 11:58N 38°32' W 028°37'0 0.0
2018-Jun-15 11:25N 38°32' W 028°37'0 0.0
2018-Jun-15 10:55N 38°32' W 028°37'0 0.0
2018-Jun-15 10:28N 38°32' W 028°37'0 0.0
2018-Jun-15 09:58N 38°32' W 028°37'0 0.0
2018-Jun-15 09:28N 38°32' W 028°37'0 0.0
2018-Jun-15 08:58N 38°32' W 028°37'0 0.0
2018-Jun-15 08:28N 38°32' W 028°37'0 0.0
2018-Jun-15 07:58N 38°32' W 028°37'0 0.0
2018-Jun-15 07:28N 38°32' W 028°37'0 0.0
2018-Jun-15 06:58N 38°32' W 028°37'0 0.0
2018-Jun-15 06:28N 38°32' W 028°37'0 0.0
2018-Jun-15 05:58N 38°32' W 028°37'0 0.0
2018-Jun-15 05:28N 38°32' W 028°37'0 0.0
2018-Jun-15 04:58N 38°32' W 028°37'0 0.0
2018-Jun-15 04:28N 38°32' W 028°37'0 0.0
2018-Jun-15 03:58N 38°32' W 028°37'0 0.0
2018-Jun-15 03:28N 38°32' W 028°37'0 0.0
2018-Jun-15 02:58N 38°32' W 028°37'0 0.0
2018-Jun-15 02:28N 38°32' W 028°37'0 0.0
2018-Jun-15 01:58N 38°32' W 028°37'0 0.0
2018-Jun-15 01:28N 38°32' W 028°37'0 0.0
2018-Jun-15 00:55N 38°32' W 028°37'0 0.0
2018-Jun-15 00:28N 38°32' W 028°37'0 0.0
2018-Jun-14 23:58N 38°32' W 028°37'0 0.0
2018-Jun-14 23:28N 38°32' W 028°37'0 0.0
2018-Jun-14 22:58N 38°32' W 028°37'0 0.0
2018-Jun-14 22:28N 38°32' W 028°37'0 0.0
2018-Jun-14 21:58N 38°32' W 028°37'0 0.0
2018-Jun-14 21:25N 38°32' W 028°37'0 0.0
2018-Jun-14 20:58N 38°32' W 028°37'0 0.0
2018-Jun-14 20:25N 38°32' W 028°37'0 0.0
2018-Jun-14 19:55N 38°32' W 028°37'0 0.0
2018-Jun-14 19:28N 38°32' W 028°37'0 0.0
2018-Jun-14 18:58N 38°32' W 028°37'0 0.0
2018-Jun-14 18:28N 38°32' W 028°37'0 0.0
2018-Jun-14 17:58N 38°32' W 028°37'0 0.0
2018-Jun-14 17:28N 38°32' W 028°37'0 0.0
2018-Jun-14 16:58N 38°32' W 028°37'0 0.0
2018-Jun-14 16:28N 38°32' W 028°37'0 0.0
2018-Jun-14 15:58N 38°32' W 028°37'0 0.0
2018-Jun-14 15:28N 38°32' W 028°37'0 0.0
2018-Jun-14 14:58N 38°32' W 028°37'0 0.0
2018-Jun-14 14:28N 38°32' W 028°37'0 0.0
2018-Jun-14 13:58N 38°32' W 028°37'0 0.0
2018-Jun-14 13:28N 38°32' W 028°37'0 0.0
2018-Jun-14 12:58N 38°32' W 028°37'0 0.0
2018-Jun-14 12:28N 38°32' W 028°37'0 0.0
2018-Jun-14 11:58N 38°32' W 028°37'0 0.0
2018-Jun-14 11:28N 38°32' W 028°37'0 0.0
2018-Jun-14 10:58N 38°32' W 028°37'0 0.0
2018-Jun-14 10:28N 38°32' W 028°37'0 0.0
2018-Jun-14 09:58N 38°32' W 028°37'0 0.0
2018-Jun-14 09:28N 38°32' W 028°37'0 0.0
2018-Jun-14 08:58N 38°32' W 028°37'0 0.0
2018-Jun-14 08:28N 38°32' W 028°37'0 0.0
2018-Jun-14 07:52N 38°32' W 028°37'0 0.0
2018-Jun-14 07:28N 38°32' W 028°37'0 0.0
2018-Jun-14 06:58N 38°32' W 028°37'0 0.0
2018-Jun-14 06:28N 38°32' W 028°37'0 0.0
2018-Jun-14 05:58N 38°32' W 028°37'0 0.0
2018-Jun-14 05:28N 38°32' W 028°37'0 0.0
2018-Jun-14 04:58N 38°32' W 028°37'0 0.0
2018-Jun-14 04:28N 38°32' W 028°37'0 0.0
2018-Jun-14 03:58N 38°32' W 028°37'0 0.0
2018-Jun-14 03:28N 38°32' W 028°37'0 0.0
2018-Jun-14 02:58N 38°32' W 028°37'0 0.0
2018-Jun-14 02:28N 38°32' W 028°37'0 0.0
2018-Jun-14 01:58N 38°32' W 028°37'0 0.0
2018-Jun-14 01:28N 38°32' W 028°37'0 0.0
2018-Jun-14 00:58N 38°32' W 028°37'0 0.0
2018-Jun-14 00:28N 38°32' W 028°37'0 0.0
2018-Jun-13 23:58N 38°32' W 028°37'0 0.0
2018-Jun-13 23:28N 38°32' W 028°37'0 0.0
2018-Jun-13 22:58N 38°32' W 028°37'0 0.0
2018-Jun-13 22:28N 38°32' W 028°37'0 0.0
2018-Jun-13 21:55N 38°32' W 028°37'0 0.0
2018-Jun-13 21:28N 38°32' W 028°37'0 0.0
2018-Jun-13 20:58N 38°32' W 028°37'0 0.0
2018-Jun-13 20:28N 38°32' W 028°37'0 0.0
2018-Jun-13 19:58N 38°32' W 028°37'0 0.0
2018-Jun-13 19:28N 38°32' W 028°37'0 0.0
2018-Jun-13 18:58N 38°32' W 028°37'0 0.0
2018-Jun-13 18:28N 38°32' W 028°37'0 0.0
2018-Jun-13 17:58N 38°32' W 028°37'0 0.0
2018-Jun-13 17:25N 38°32' W 028°37'0 0.0
2018-Jun-13 16:58N 38°32' W 028°37'0 0.0
2018-Jun-13 16:28N 38°32' W 028°37'0 0.0
2018-Jun-13 15:58N 38°32' W 028°37'0 0.0
2018-Jun-13 15:28N 38°32' W 028°37'0 0.0
2018-Jun-13 14:58N 38°32' W 028°37'0 0.0
2018-Jun-13 14:28N 38°32' W 028°37'0 0.0
2018-Jun-13 13:55N 38°32' W 028°37'0 0.0
2018-Jun-13 13:28N 38°32' W 028°37'0 0.0
2018-Jun-13 12:58N 38°32' W 028°37'0 0.0
2018-Jun-13 12:28N 38°32' W 028°37'0 0.0
2018-Jun-13 11:55N 38°32' W 028°37'0 0.0
2018-Jun-13 11:28N 38°32' W 028°37'0 0.0
2018-Jun-13 10:58N 38°32' W 028°37'0 0.0
2018-Jun-13 10:28N 38°32' W 028°37'0 0.0
2018-Jun-13 09:58N 38°32' W 028°37'0 0.0
2018-Jun-13 09:28N 38°32' W 028°37'0 0.0
2018-Jun-13 08:58N 38°32' W 028°37'  

Dump ship's entire track history